createdAt,value
2022-10-23T00:01:00.279Z,92.96
2022-10-23T00:03:27.145Z,93.00
2022-10-23T00:05:53.708Z,92.89
2022-10-23T00:08:20.221Z,93.01
2022-10-23T00:10:46.803Z,92.93
2022-10-23T00:13:13.377Z,92.54
2022-10-23T00:15:39.991Z,92.99
2022-10-23T00:18:06.566Z,92.57
2022-10-23T00:20:33.101Z,92.79
2022-10-23T00:22:59.647Z,92.69
2022-10-23T00:25:26.208Z,92.61
2022-10-23T00:27:52.723Z,92.63
2022-10-23T00:30:19.300Z,92.72
2022-10-23T00:32:45.850Z,92.61
2022-10-23T00:35:12.404Z,92.38
2022-10-23T00:37:38.957Z,92.57
2022-10-23T00:40:06.256Z,92.34
2022-10-23T00:42:32.918Z,92.38
2022-10-23T00:45:33.513Z,92.37
2022-10-23T00:48:01.886Z,92.24
2022-10-23T00:50:31.482Z,92.03
2022-10-23T00:53:00.622Z,92.27
2022-10-23T00:55:27.960Z,92.17
2022-10-23T00:57:54.907Z,92.00
2022-10-23T01:00:28.072Z,92.16
2022-10-23T01:02:56.483Z,91.89
2022-10-23T01:05:30.400Z,91.83
2022-10-23T01:08:06.312Z,92.05
2022-10-23T01:10:56.996Z,92.04
2022-10-23T01:13:29.565Z,92.16
2022-10-23T01:16:16.761Z,92.03
2022-10-23T01:18:51.216Z,92.14
2022-10-23T01:21:29.248Z,91.85
2022-10-23T01:24:20.555Z,92.00
2022-10-23T01:27:14.446Z,91.85
2022-10-23T01:29:50.415Z,92.07
2022-10-23T01:32:19.982Z,92.23
2022-10-23T01:34:52.639Z,92.39
2022-10-23T01:37:25.273Z,92.08
2022-10-23T01:39:55.441Z,91.99
2022-10-23T01:42:28.961Z,92.00
2022-10-23T01:45:09.638Z,92.14
2022-10-23T01:47:37.092Z,92.07
2022-10-23T01:50:06.275Z,91.96
2022-10-23T01:52:32.864Z,92.22
2022-10-23T01:55:01.752Z,92.03
2022-10-23T01:57:31.187Z,91.87
2022-10-23T02:00:03.735Z,91.79
2022-10-23T02:02:33.781Z,91.57
2022-10-23T02:05:12.051Z,91.73
2022-10-23T02:07:38.780Z,91.90
2022-10-23T02:10:08.152Z,91.79
2022-10-23T02:13:04.349Z,91.33
2022-10-23T02:15:45.342Z,91.72
2022-10-23T02:18:21.085Z,91.51
2022-10-23T02:21:16.480Z,91.44
2022-10-23T02:23:51.404Z,91.80
2022-10-23T02:26:34.350Z,91.35
2022-10-23T02:29:18.216Z,91.98
2022-10-23T02:31:45.272Z,91.80
2022-10-23T02:34:11.874Z,91.69
2022-10-23T02:36:38.400Z,91.60
2022-10-23T02:39:05.758Z,91.72
2022-10-23T02:41:51.257Z,91.54
2022-10-23T02:44:23.692Z,91.96
2022-10-23T02:46:52.819Z,91.88
2022-10-23T02:49:26.532Z,91.88
2022-10-23T02:52:01.678Z,91.61
2022-10-23T02:54:37.074Z,91.67
2022-10-23T02:57:12.646Z,91.24
2022-10-23T03:00:00.860Z,91.18
2022-10-23T03:02:33.134Z,91.40
2022-10-23T03:05:01.676Z,91.66
2022-10-23T03:07:28.384Z,91.71
2022-10-23T03:09:54.889Z,91.27
2022-10-23T03:12:21.445Z,91.87
2022-10-23T03:14:48.012Z,91.26
2022-10-23T03:17:14.907Z,91.50
2022-10-23T03:19:41.407Z,91.58
2022-10-23T03:22:07.987Z,91.88
2022-10-23T03:24:34.517Z,92.05
2022-10-23T03:27:00.990Z,91.69
2022-10-23T03:29:27.524Z,91.66
2022-10-23T03:31:55.581Z,92.40
2022-10-23T03:34:22.193Z,92.76
2022-10-23T03:36:48.698Z,92.63
2022-10-23T03:39:15.248Z,92.74
2022-10-23T03:41:41.784Z,92.74
2022-10-23T03:44:08.580Z,92.41
2022-10-23T03:46:35.143Z,92.50
2022-10-23T03:49:01.657Z,93.16
2022-10-23T03:51:28.302Z,93.26
2022-10-23T03:53:54.965Z,93.57
2022-10-23T03:56:21.599Z,93.03
2022-10-23T03:58:48.243Z,93.67
2022-10-23T04:01:15.117Z,93.67
2022-10-23T04:03:41.649Z,93.95
2022-10-23T04:06:08.230Z,93.15
2022-10-23T04:08:34.810Z,93.41
2022-10-23T04:11:01.335Z,93.24
2022-10-23T04:13:27.836Z,93.10
2022-10-23T04:15:54.390Z,93.22
2022-10-23T04:18:21.002Z,93.54
2022-10-23T04:20:49.201Z,93.36
2022-10-23T04:23:16.076Z,93.10
2022-10-23T04:25:42.698Z,93.57
2022-10-23T04:28:09.266Z,93.63
2022-10-23T04:30:35.871Z,93.10
2022-10-23T04:33:02.455Z,93.27
2022-10-23T04:35:29.028Z,92.98
2022-10-23T04:37:55.553Z,93.21
2022-10-23T04:40:22.082Z,93.53
2022-10-23T04:42:48.634Z,92.94
2022-10-23T04:45:15.272Z,93.63
2022-10-23T04:47:41.797Z,92.84
2022-10-23T04:50:08.302Z,93.04
2022-10-23T04:52:34.815Z,93.33
2022-10-23T04:55:01.343Z,93.11
2022-10-23T04:57:27.887Z,93.46
2022-10-23T04:59:54.392Z,93.01
2022-10-23T05:02:20.947Z,94.19
2022-10-23T05:04:47.464Z,94.23
2022-10-23T05:07:14.036Z,93.57
2022-10-23T05:09:40.576Z,92.70
2022-10-23T05:12:07.081Z,91.30
2022-10-23T05:14:33.614Z,90.09
2022-10-23T05:17:07.829Z,89.16
2022-10-23T05:19:41.732Z,88.01
2022-10-23T05:22:09.696Z,86.54
2022-10-23T05:24:36.351Z,86.53
2022-10-23T05:27:03.012Z,85.90
2022-10-23T05:29:29.601Z,85.34
2022-10-23T05:32:00.874Z,85.30
2022-10-23T05:34:30.042Z,84.07
2022-10-23T05:36:56.896Z,82.43
2022-10-23T05:39:23.673Z,81.09
2022-10-23T05:41:51.253Z,80.39
2022-10-23T05:44:17.803Z,79.51
2022-10-23T05:46:44.524Z,79.57
2022-10-23T05:49:11.023Z,79.73
2022-10-23T05:51:38.767Z,79.30
2022-10-23T05:54:08.308Z,78.98
2022-10-23T05:56:41.599Z,78.98
2022-10-23T05:59:08.966Z,79.42
2022-10-23T06:01:36.266Z,78.67
2022-10-23T06:04:04.202Z,78.88
2022-10-23T06:06:30.867Z,78.84
2022-10-23T06:08:57.474Z,77.75
2022-10-23T06:11:24.051Z,77.77
2022-10-23T06:13:50.741Z,78.15
2022-10-23T06:16:20.402Z,77.90
2022-10-23T06:18:47.854Z,77.73
2022-10-23T06:21:15.395Z,77.89
2022-10-23T06:23:43.768Z,77.74
2022-10-23T06:26:12.647Z,77.19
2022-10-23T06:28:40.238Z,76.92
2022-10-23T06:31:08.322Z,77.14
2022-10-23T06:33:35.565Z,77.46
2022-10-23T06:36:03.636Z,77.67
2022-10-23T06:38:36.585Z,77.41
2022-10-23T06:41:04.151Z,76.59
2022-10-23T06:43:30.685Z,76.62
2022-10-23T06:46:00.981Z,76.53
2022-10-23T06:48:27.518Z,76.36
2022-10-23T06:50:54.172Z,76.65
2022-10-23T06:53:20.755Z,76.29
2022-10-23T06:55:50.073Z,75.96
2022-10-23T06:58:19.452Z,77.36
2022-10-23T07:00:46.028Z,76.39
2022-10-23T07:03:13.798Z,76.30
2022-10-23T07:05:41.055Z,76.12
2022-10-23T07:08:07.593Z,75.81
2022-10-23T07:10:34.602Z,75.88
2022-10-23T07:13:01.453Z,76.49
2022-10-23T07:15:28.085Z,77.34
2022-10-23T07:17:55.099Z,78.03
2022-10-23T07:20:22.309Z,78.14
2022-10-23T07:22:56.779Z,79.10
2022-10-23T07:25:25.911Z,79.23
2022-10-23T07:27:55.380Z,79.14
2022-10-23T07:30:22.037Z,79.61
2022-10-23T07:32:48.574Z,80.39
2022-10-23T07:37:47.141Z,80.14
2022-10-23T07:40:13.891Z,80.36
2022-10-23T07:42:40.718Z,81.23
2022-10-23T07:45:08.731Z,81.53
2022-10-23T07:47:35.432Z,82.10
2022-10-23T07:50:01.964Z,82.35
2022-10-23T07:52:32.019Z,82.56
2022-10-23T07:55:01.939Z,82.69
2022-10-23T07:57:28.458Z,82.97
2022-10-23T07:59:55.038Z,83.18
2022-10-23T08:02:21.734Z,83.37
2022-10-23T08:04:51.120Z,83.42
2022-10-23T08:07:17.720Z,83.18
2022-10-23T08:09:44.285Z,83.09
2022-10-23T08:12:10.992Z,83.26
2022-10-23T08:14:37.601Z,83.34
2022-10-23T08:17:05.470Z,83.13
2022-10-23T08:19:32.329Z,82.92
2022-10-23T08:21:58.852Z,83.12
2022-10-23T08:24:25.442Z,83.00
2022-10-23T08:26:51.963Z,83.20
2022-10-23T08:29:18.552Z,83.55
2022-10-23T08:31:45.169Z,83.37
2022-10-23T08:34:11.805Z,83.26
2022-10-23T08:36:39.358Z,83.24
2022-10-23T08:39:06.619Z,83.11
2022-10-23T08:41:47.936Z,83.10
2022-10-23T08:44:32.810Z,83.16
2022-10-23T08:47:06.722Z,83.35
2022-10-23T08:49:47.571Z,82.95
2022-10-23T08:52:35.415Z,83.14
2022-10-23T08:55:15.136Z,82.75
2022-10-23T08:57:51.741Z,82.56
2022-10-23T09:00:18.739Z,82.45
2022-10-23T09:02:48.253Z,82.20
2022-10-23T09:05:16.562Z,82.60
2022-10-23T09:08:09.777Z,82.56
2022-10-23T09:10:55.072Z,81.97
2022-10-23T09:13:48.212Z,82.07
2022-10-23T09:16:25.513Z,82.36
2022-10-23T09:18:56.212Z,81.23
2022-10-23T09:21:30.327Z,81.22
2022-10-23T09:23:57.020Z,81.33
2022-10-23T09:26:23.656Z,80.84
2022-10-23T09:28:55.326Z,80.64
2022-10-23T09:31:21.839Z,80.60
2022-10-23T09:34:01.786Z,79.57
2022-10-23T09:36:29.553Z,79.22
2022-10-23T09:38:58.963Z,78.82
2022-10-23T09:41:37.132Z,78.48
2022-10-23T09:44:15.838Z,78.52
2022-10-23T09:46:45.109Z,78.54
2022-10-23T09:49:26.996Z,78.34
2022-10-23T09:52:01.954Z,77.52
2022-10-23T09:54:32.186Z,78.25
2022-10-23T09:57:05.723Z,76.74
2022-10-23T09:59:33.958Z,76.44
2022-10-23T10:02:05.714Z,75.96
2022-10-23T10:04:40.770Z,75.78
2022-10-23T10:07:19.431Z,75.66
2022-10-23T10:09:46.359Z,76.27
2022-10-23T10:12:34.631Z,75.69
2022-10-23T10:15:28.469Z,75.89
2022-10-23T10:18:24.294Z,74.76
2022-10-23T10:21:08.891Z,73.93
2022-10-23T10:24:01.863Z,74.09
2022-10-23T10:26:51.092Z,72.75
2022-10-23T10:29:36.058Z,72.59
2022-10-23T10:32:06.030Z,72.77
2022-10-23T10:34:41.947Z,71.91
2022-10-23T10:37:48.618Z,71.66
2022-10-23T10:40:41.061Z,71.31
2022-10-23T10:43:40.535Z,71.32
2022-10-23T10:46:41.236Z,70.56
2022-10-23T10:49:16.192Z,69.56
2022-10-23T10:52:00.738Z,68.77
2022-10-23T10:54:57.628Z,68.89
2022-10-23T10:57:43.089Z,69.39
2022-10-23T11:00:15.870Z,69.19
2022-10-23T11:02:49.931Z,67.74
2022-10-23T11:05:29.331Z,66.76
2022-10-23T11:08:00.470Z,67.21
2022-10-23T11:10:28.930Z,66.48
2022-10-23T11:12:56.960Z,65.85
2022-10-23T11:15:35.283Z,66.14
2022-10-23T11:18:05.987Z,66.64
2022-10-23T11:21:00.823Z,66.06
2022-10-23T11:23:36.533Z,65.54
2022-10-23T11:26:18.824Z,65.03
2022-10-23T11:29:23.179Z,65.79
2022-10-23T11:32:05.940Z,65.43
2022-10-23T11:34:44.154Z,64.31
2022-10-23T11:37:16.663Z,64.76
2022-10-23T11:40:01.223Z,64.64
2022-10-23T11:42:49.147Z,63.99
2022-10-23T11:45:38.413Z,63.26
2022-10-23T11:48:14.064Z,62.79
2022-10-23T11:50:46.292Z,62.15
2022-10-23T11:53:24.943Z,62.33
2022-10-23T11:56:05.300Z,62.14
2022-10-23T11:58:56.440Z,62.37
2022-10-23T12:01:32.525Z,62.59
2022-10-23T12:04:25.157Z,62.58
2022-10-23T12:07:01.464Z,62.73
2022-10-23T12:09:36.118Z,62.60
2022-10-23T12:12:08.612Z,62.86
2022-10-23T12:14:49.715Z,62.56
2022-10-23T12:17:31.489Z,62.95
2022-10-23T12:20:13.330Z,62.13
2022-10-23T12:22:58.605Z,61.35
2022-10-23T12:25:34.067Z,61.51
2022-10-23T12:28:05.512Z,60.22
2022-10-23T12:31:03.329Z,59.63
2022-10-23T12:33:41.321Z,59.44
2022-10-23T12:36:31.975Z,58.74
2022-10-23T12:38:58.791Z,57.94
2022-10-23T12:41:30.941Z,57.75
2022-10-23T12:44:01.382Z,57.55
2022-10-23T12:46:41.101Z,57.69
2022-10-23T12:49:22.750Z,57.17
2022-10-23T12:52:04.373Z,57.17
2022-10-23T12:54:33.222Z,56.61
2022-10-23T12:56:59.756Z,56.21
2022-10-23T12:59:31.715Z,56.66
2022-10-23T13:01:58.390Z,56.32
2022-10-23T13:04:31.367Z,55.82
2022-10-23T13:07:03.098Z,54.88
2022-10-23T13:09:34.683Z,54.89
2022-10-23T13:12:04.882Z,55.13
2022-10-23T13:14:40.788Z,54.78
2022-10-23T13:17:12.007Z,54.63
2022-10-23T13:19:38.639Z,54.84
2022-10-23T13:22:18.572Z,54.75
2022-10-23T13:24:45.198Z,55.16
2022-10-23T13:27:34.216Z,55.14
2022-10-23T13:30:01.030Z,56.08
2022-10-23T13:32:30.373Z,55.68
2022-10-23T13:35:10.131Z,54.89
2022-10-23T13:40:25.741Z,54.88
2022-10-23T13:42:55.609Z,55.33
2022-10-23T13:45:24.744Z,55.54
2022-10-23T13:47:51.581Z,55.20
2022-10-23T13:50:19.470Z,54.95
2022-10-23T13:52:46.250Z,54.78
2022-10-23T13:55:23.513Z,54.83
2022-10-23T13:57:50.196Z,55.15
2022-10-23T14:00:17.286Z,55.98
2022-10-23T14:02:44.527Z,56.75
2022-10-23T14:05:12.214Z,56.61
2022-10-23T14:07:38.843Z,56.97
2022-10-23T14:10:05.865Z,57.11
2022-10-23T14:12:39.300Z,57.05
2022-10-23T14:15:06.705Z,57.15
2022-10-23T14:17:35.061Z,57.04
2022-10-23T14:20:04.015Z,55.36
2022-10-23T14:22:32.412Z,55.05
2022-10-23T14:24:58.953Z,55.26
2022-10-23T14:27:25.560Z,55.43
2022-10-23T14:29:52.174Z,55.32
2022-10-23T14:32:18.762Z,56.14
2022-10-23T14:34:51.428Z,55.91
2022-10-23T14:37:19.498Z,56.98
2022-10-23T14:39:50.010Z,57.25
2022-10-23T14:42:17.299Z,57.54
2022-10-23T14:44:44.050Z,58.06
2022-10-23T14:47:10.567Z,58.24
2022-10-23T14:49:37.147Z,59.08
2022-10-23T14:52:03.799Z,59.36
2022-10-23T14:54:33.050Z,59.59
2022-10-23T14:56:59.621Z,60.20
2022-10-23T14:59:26.204Z,60.63
2022-10-23T15:04:21.262Z,60.88
2022-10-23T15:06:47.828Z,61.46
2022-10-23T15:09:15.021Z,61.69
2022-10-23T15:11:41.682Z,61.67
2022-10-23T15:14:08.260Z,61.73
2022-10-23T15:16:41.321Z,62.13
2022-10-23T15:19:17.166Z,62.64
2022-10-23T15:21:46.140Z,62.88
2022-10-23T15:24:12.717Z,63.05
2022-10-23T15:26:41.792Z,63.32
2022-10-23T15:29:08.815Z,63.56
2022-10-23T15:31:37.537Z,63.85
2022-10-23T15:34:08.762Z,63.98
2022-10-23T15:36:35.470Z,64.48
2022-10-23T15:39:03.649Z,64.23
2022-10-23T15:41:32.212Z,64.67
2022-10-23T15:43:59.919Z,64.52
2022-10-23T15:46:26.535Z,64.72
2022-10-23T15:48:53.872Z,65.92
2022-10-23T15:51:20.649Z,65.65
2022-10-23T15:53:47.515Z,66.14
2022-10-23T15:56:14.083Z,62.26
2022-10-23T15:58:40.653Z,64.86
2022-10-23T16:01:07.457Z,66.07
2022-10-23T16:03:35.839Z,67.92
2022-10-23T16:06:07.307Z,68.61
2022-10-23T16:08:33.981Z,70.49
2022-10-23T16:11:00.506Z,70.81
2022-10-23T16:13:27.333Z,71.83
2022-10-23T16:15:54.389Z,72.12
2022-10-23T16:18:22.460Z,73.33
2022-10-23T16:20:51.022Z,73.77
2022-10-23T16:23:17.784Z,74.44
2022-10-23T16:25:45.972Z,74.96
2022-10-23T16:28:12.941Z,76.90
2022-10-23T16:30:43.377Z,77.05
2022-10-23T16:33:10.201Z,77.65
2022-10-23T16:35:37.332Z,76.50
2022-10-23T16:38:04.062Z,75.44
2022-10-23T16:40:31.194Z,75.45
2022-10-23T16:42:58.576Z,74.83
2022-10-23T16:45:25.164Z,74.33
2022-10-23T16:47:51.831Z,74.00
2022-10-23T16:50:18.465Z,73.90
2022-10-23T16:52:45.532Z,73.75
2022-10-23T16:55:12.370Z,73.78
2022-10-23T16:57:39.016Z,73.57
2022-10-23T17:00:07.120Z,73.55
2022-10-23T17:02:33.877Z,73.10
2022-10-23T17:05:00.557Z,72.36
2022-10-23T17:07:27.156Z,72.24
2022-10-23T17:09:53.726Z,72.17
2022-10-23T17:12:20.326Z,73.10
2022-10-23T17:14:46.862Z,73.85
2022-10-23T17:17:13.694Z,74.64
2022-10-23T17:19:46.012Z,75.28
2022-10-23T17:22:14.209Z,76.15
2022-10-23T17:24:42.415Z,77.08
2022-10-23T17:27:09.240Z,77.48
2022-10-23T17:29:36.069Z,78.40
2022-10-23T17:32:03.161Z,79.21
2022-10-23T17:34:29.717Z,79.69
2022-10-23T17:36:56.830Z,79.83
2022-10-23T17:39:26.754Z,80.38
2022-10-23T17:41:54.104Z,80.55
2022-10-23T17:44:20.881Z,80.36
2022-10-23T17:46:53.298Z,81.03
2022-10-23T17:49:20.727Z,81.43
2022-10-23T17:51:54.182Z,81.35
2022-10-23T17:54:21.218Z,81.45
2022-10-23T17:56:47.831Z,81.92
2022-10-23T17:59:16.134Z,82.25
2022-10-23T18:01:52.423Z,82.81
2022-10-23T18:04:20.962Z,83.29
2022-10-23T18:06:50.488Z,83.11
2022-10-23T18:09:17.355Z,82.75
2022-10-23T18:11:48.171Z,82.68
2022-10-23T18:14:17.124Z,83.12
2022-10-23T18:16:45.620Z,83.21
2022-10-23T18:19:12.652Z,83.04
2022-10-23T18:21:40.196Z,83.73
2022-10-23T18:24:06.823Z,83.39
2022-10-23T18:26:37.840Z,84.14
2022-10-23T18:29:07.851Z,83.59
2022-10-23T18:31:37.158Z,83.04
2022-10-23T18:34:09.081Z,83.16
2022-10-23T18:36:38.720Z,81.53
2022-10-23T18:39:06.871Z,80.73
2022-10-23T18:41:35.850Z,79.92
2022-10-23T18:44:03.094Z,78.22
2022-10-23T18:46:29.684Z,78.57
2022-10-23T18:48:56.323Z,77.11
2022-10-23T18:51:25.879Z,77.11
2022-10-23T18:53:52.924Z,77.63
2022-10-23T18:56:23.552Z,77.11
2022-10-23T18:58:51.522Z,76.87
2022-10-23T19:01:19.026Z,77.65
2022-10-23T19:03:46.286Z,77.09
2022-10-23T19:06:13.623Z,76.29
2022-10-23T19:08:42.751Z,75.95
2022-10-23T19:11:10.580Z,75.53
2022-10-23T19:13:39.189Z,75.05
2022-10-23T19:16:20.988Z,75.25
2022-10-23T19:18:51.881Z,75.43
2022-10-23T19:21:21.744Z,75.25
2022-10-23T19:23:49.254Z,74.99
2022-10-23T19:26:16.569Z,75.17
2022-10-23T19:28:46.170Z,75.44
2022-10-23T19:31:13.629Z,75.61
2022-10-23T19:33:40.291Z,75.68
2022-10-23T19:36:11.146Z,76.32
2022-10-23T19:38:41.592Z,76.69
2022-10-23T19:41:08.984Z,77.14
2022-10-23T19:43:37.757Z,76.66
2022-10-23T19:46:09.280Z,77.44
2022-10-23T19:48:42.580Z,78.38
2022-10-23T19:51:09.563Z,78.32
2022-10-23T19:53:36.493Z,79.35
2022-10-23T19:56:07.540Z,79.53
2022-10-23T19:58:34.279Z,80.17
2022-10-23T20:01:09.610Z,80.55
2022-10-23T20:03:36.274Z,81.42
2022-10-23T20:06:02.944Z,81.98
2022-10-23T20:08:32.699Z,81.58
2022-10-23T20:11:01.677Z,81.84
2022-10-23T20:13:28.353Z,81.22
2022-10-23T20:15:55.407Z,81.67
2022-10-23T20:18:22.290Z,81.67
2022-10-23T20:20:48.983Z,81.69
2022-10-23T20:23:15.596Z,82.28
2022-10-23T20:25:42.192Z,81.99
2022-10-23T20:28:11.479Z,82.82
2022-10-23T20:30:41.954Z,82.35
2022-10-23T20:33:08.611Z,82.86
2022-10-23T20:35:42.719Z,83.03
2022-10-23T20:38:09.939Z,82.95
2022-10-23T20:40:36.776Z,82.39
2022-10-23T20:43:03.618Z,83.33
2022-10-23T20:45:30.166Z,82.94
2022-10-23T20:47:56.985Z,83.09
2022-10-23T20:50:23.916Z,83.24
2022-10-23T20:52:50.849Z,83.25
2022-10-23T20:55:18.095Z,83.63
2022-10-23T20:57:45.062Z,84.17
2022-10-23T21:00:12.330Z,84.07
2022-10-23T21:02:38.979Z,85.13
2022-10-23T21:05:06.221Z,84.60
2022-10-23T21:07:32.777Z,84.60
2022-10-23T21:09:59.413Z,85.15
2022-10-23T21:12:25.936Z,84.87
2022-10-23T21:14:53.602Z,84.45
2022-10-23T21:17:20.462Z,84.28
2022-10-23T21:19:47.500Z,84.08
2022-10-23T21:22:14.082Z,84.35
2022-10-23T21:24:40.638Z,85.06
2022-10-23T21:27:07.260Z,85.31
2022-10-23T21:29:33.795Z,84.77
2022-10-23T21:32:01.636Z,85.08
2022-10-23T21:34:29.130Z,85.44
2022-10-23T21:39:44.067Z,85.62
2022-10-23T21:42:12.510Z,84.99
2022-10-23T21:44:39.179Z,85.05
2022-10-23T21:47:05.761Z,85.27
2022-10-23T21:49:32.421Z,85.83
2022-10-23T21:51:58.923Z,84.92
2022-10-23T21:54:25.531Z,84.77
2022-10-23T21:56:53.884Z,85.55
2022-10-23T21:59:24.316Z,85.62
2022-10-23T22:01:51.836Z,85.65
2022-10-23T22:04:19.896Z,86.02
2022-10-23T22:06:49.614Z,85.94
2022-10-23T22:09:19.796Z,86.23
2022-10-23T22:11:46.946Z,86.58
2022-10-23T22:14:13.418Z,86.52
2022-10-23T22:16:41.997Z,86.41
2022-10-23T22:19:13.527Z,86.09
2022-10-23T22:21:40.497Z,86.50
2022-10-23T22:24:07.765Z,86.78
2022-10-23T22:26:40.533Z,86.54
2022-10-23T22:29:12.584Z,86.47
2022-10-23T22:31:43.003Z,86.97
2022-10-23T22:34:26.677Z,86.79
2022-10-23T22:37:01.810Z,87.35
2022-10-23T22:39:28.374Z,87.49
2022-10-23T22:41:58.197Z,87.73
2022-10-23T22:44:24.754Z,87.77
2022-10-23T22:46:51.296Z,87.80
2022-10-23T22:49:17.838Z,87.79
2022-10-23T22:51:44.341Z,88.24
2022-10-23T22:54:10.867Z,88.14
2022-10-23T22:56:37.419Z,88.04
2022-10-23T22:59:04.794Z,87.97
2022-10-23T23:01:36.400Z,88.02
2022-10-23T23:04:19.483Z,87.73
2022-10-23T23:06:49.734Z,88.00
2022-10-23T23:09:18.110Z,87.49
2022-10-23T23:11:51.855Z,87.44
2022-10-23T23:14:23.280Z,86.74
2022-10-23T23:16:51.129Z,86.76
2022-10-23T23:19:17.628Z,86.83
2022-10-23T23:21:44.261Z,87.64
2022-10-23T23:24:12.296Z,87.29
2022-10-23T23:26:39.137Z,86.40
2022-10-23T23:29:06.157Z,86.33
2022-10-23T23:31:32.704Z,86.18
2022-10-23T23:33:59.412Z,86.25
2022-10-23T23:36:28.162Z,85.67
2022-10-23T23:38:57.242Z,86.50
2022-10-23T23:41:25.138Z,86.20
2022-10-23T23:43:53.521Z,86.51
2022-10-23T23:46:20.163Z,86.51
2022-10-23T23:48:49.928Z,86.62
2022-10-23T23:51:19.475Z,87.05
2022-10-23T23:53:46.629Z,86.76
2022-10-23T23:56:13.909Z,86.30
2022-10-23T23:58:40.450Z,87.08
